createdAt,value
2023-05-15T00:00:48.649Z,22.5350
2023-05-15T00:01:50.402Z,22.5577
2023-05-15T00:02:52.196Z,22.5569
2023-05-15T00:03:53.938Z,22.5662
2023-05-15T00:04:55.712Z,22.5542
2023-05-15T00:05:57.350Z,22.5454
2023-05-15T00:06:59.069Z,22.5627
2023-05-15T00:08:00.785Z,22.5635
2023-05-15T00:09:02.519Z,22.5631
2023-05-15T00:10:04.283Z,22.5696
2023-05-15T00:11:06.030Z,22.5646
2023-05-15T00:12:07.722Z,22.5708
2023-05-15T00:13:09.455Z,22.5677
2023-05-15T00:14:11.198Z,22.5673
2023-05-15T00:15:12.955Z,22.5712
2023-05-15T00:16:14.743Z,22.5708
2023-05-15T00:17:16.405Z,22.5627
2023-05-15T00:18:18.127Z,22.5627
2023-05-15T00:19:19.893Z,22.5638
2023-05-15T00:20:21.623Z,22.5681
2023-05-15T00:21:23.342Z,22.5735
2023-05-15T00:22:25.079Z,22.5708
2023-05-15T00:23:26.796Z,22.5577
2023-05-15T00:24:28.543Z,22.5619
2023-05-15T00:25:30.277Z,22.5723
2023-05-15T00:26:32.021Z,22.5731
2023-05-15T00:27:33.745Z,22.5715
2023-05-15T00:28:36.343Z,22.5773
2023-05-15T00:29:37.196Z,22.5688
2023-05-15T00:30:38.927Z,22.5615
2023-05-15T00:31:40.732Z,22.5523
2023-05-15T00:32:42.460Z,22.5500
2023-05-15T00:33:44.135Z,22.5462
2023-05-15T00:34:45.880Z,22.5435
2023-05-15T00:35:47.616Z,22.5365
2023-05-15T00:36:49.392Z,22.5427
2023-05-15T00:37:51.106Z,22.5385
2023-05-15T00:38:52.833Z,22.5265
2023-05-15T00:39:54.545Z,22.5273
2023-05-15T00:40:56.281Z,22.5231
2023-05-15T00:41:59.496Z,22.5169
2023-05-15T00:43:01.370Z,22.5246
2023-05-15T00:44:01.510Z,22.5358
2023-05-15T00:45:03.243Z,22.5392
2023-05-15T00:46:04.972Z,22.5396
2023-05-15T00:47:06.709Z,22.5442
2023-05-15T00:48:08.444Z,22.5527
2023-05-15T00:49:10.175Z,22.5438
2023-05-15T00:50:11.896Z,22.5458
2023-05-15T00:51:13.634Z,22.5331
2023-05-15T00:52:15.361Z,22.5262
2023-05-15T00:53:17.113Z,22.5312
2023-05-15T00:54:18.881Z,22.5269
2023-05-15T00:55:20.580Z,22.5292
2023-05-15T00:56:22.293Z,22.5469
2023-05-15T00:57:24.032Z,22.5346
2023-05-15T00:58:25.764Z,22.5435
2023-05-15T00:59:27.512Z,22.5423
2023-05-15T01:00:29.246Z,22.5385
2023-05-15T01:01:31.017Z,22.5504
2023-05-15T01:02:32.785Z,22.5481
2023-05-15T01:03:34.471Z,22.5450
2023-05-15T01:04:36.228Z,22.5431
2023-05-15T01:05:37.920Z,22.5431
2023-05-15T01:06:39.653Z,22.5400
2023-05-15T01:07:41.373Z,22.5408
2023-05-15T01:08:43.104Z,22.5431
2023-05-15T01:09:44.873Z,22.5419
2023-05-15T01:10:46.589Z,22.5496
2023-05-15T01:11:48.329Z,22.5523
2023-05-15T01:12:50.038Z,22.5642
2023-05-15T01:13:51.769Z,22.5673
2023-05-15T01:14:53.504Z,22.5654
2023-05-15T01:15:55.277Z,22.5408
2023-05-15T01:16:57.002Z,22.5485
2023-05-15T01:17:58.705Z,22.5581
2023-05-15T01:19:00.483Z,22.5562
2023-05-15T01:20:02.191Z,22.5496
2023-05-15T01:21:03.924Z,22.5388
2023-05-15T01:22:05.662Z,22.5377
2023-05-15T01:23:07.394Z,22.5358
2023-05-15T01:24:09.130Z,22.5388
2023-05-15T01:25:10.827Z,22.5396
2023-05-15T01:26:12.563Z,22.5369
2023-05-15T01:27:14.327Z,22.5435
2023-05-15T01:28:16.023Z,22.5492
2023-05-15T01:29:17.782Z,22.5458
2023-05-15T01:30:19.507Z,22.5485
2023-05-15T01:31:21.249Z,22.5527
2023-05-15T01:32:23.118Z,22.5550
2023-05-15T01:33:24.708Z,22.5431
2023-05-15T01:34:26.424Z,22.5358
2023-05-15T01:35:28.426Z,22.5473
2023-05-15T01:36:29.907Z,22.5500
2023-05-15T01:37:31.619Z,22.5477
2023-05-15T01:38:33.371Z,22.5427
2023-05-15T01:39:35.088Z,22.5527
2023-05-15T01:40:36.847Z,22.5554
2023-05-15T01:41:38.568Z,22.5473
2023-05-15T01:42:40.299Z,22.5423
2023-05-15T01:43:42.045Z,22.5450
2023-05-15T01:44:43.770Z,22.5485
2023-05-15T01:45:45.474Z,22.5612
2023-05-15T01:46:47.289Z,22.5569
2023-05-15T01:47:48.975Z,22.5558
2023-05-15T01:48:50.695Z,22.5450
2023-05-15T01:49:52.404Z,22.5588
2023-05-15T01:50:54.146Z,22.5485
2023-05-15T01:51:55.872Z,22.5404
2023-05-15T01:52:57.610Z,22.5508
2023-05-15T01:53:59.366Z,22.5508
2023-05-15T01:55:01.116Z,22.5619
2023-05-15T01:56:02.803Z,22.5577
2023-05-15T01:57:04.547Z,22.5662
2023-05-15T01:58:06.270Z,22.5658
2023-05-15T01:59:08.038Z,22.5612
2023-05-15T02:00:09.794Z,22.5765
2023-05-15T02:01:11.473Z,22.5708
2023-05-15T02:02:13.214Z,22.5754
2023-05-15T02:03:15.009Z,22.5642
2023-05-15T02:04:16.678Z,22.5562
2023-05-15T02:05:24.773Z,22.5535
2023-05-15T02:07:57.943Z,22.5354
2023-05-15T02:08:59.570Z,22.5369
2023-05-15T02:10:01.309Z,22.5319
2023-05-15T02:11:03.116Z,22.5327
2023-05-15T02:12:04.764Z,22.5227
2023-05-15T02:13:06.524Z,22.5250
2023-05-15T02:14:08.252Z,22.5223
2023-05-15T02:15:09.974Z,22.5246
2023-05-15T02:16:11.878Z,22.5127
2023-05-15T02:17:13.451Z,22.5127
2023-05-15T02:18:15.161Z,22.5185
2023-05-15T02:19:16.964Z,22.5269
2023-05-15T02:20:18.624Z,22.5292
2023-05-15T02:21:20.374Z,22.5285
2023-05-15T02:22:22.190Z,22.5385
2023-05-15T02:23:23.818Z,22.5304
2023-05-15T02:24:25.568Z,22.5231
2023-05-15T02:25:27.300Z,22.5296
2023-05-15T02:26:29.026Z,22.5262
2023-05-15T02:27:30.759Z,22.5173
2023-05-15T02:28:32.562Z,22.5169
2023-05-15T02:29:34.208Z,22.5181
2023-05-15T02:30:35.932Z,22.5235
2023-05-15T02:31:37.718Z,22.5231
2023-05-15T02:32:39.422Z,22.5254
2023-05-15T02:33:41.210Z,22.5269
2023-05-15T02:34:42.859Z,22.5331
2023-05-15T02:35:44.584Z,22.5312
2023-05-15T02:36:46.336Z,22.5227
2023-05-15T02:37:48.083Z,22.5269
2023-05-15T02:38:49.802Z,22.5223
2023-05-15T02:39:51.601Z,22.5238
2023-05-15T02:40:53.244Z,22.5131
2023-05-15T02:41:54.966Z,22.5181
2023-05-15T02:42:56.727Z,22.5154
2023-05-15T02:43:58.451Z,22.5212
2023-05-15T02:45:00.170Z,22.5308
2023-05-15T02:46:02.028Z,22.5242
2023-05-15T02:47:03.622Z,22.5238
2023-05-15T02:48:05.421Z,22.5277
2023-05-15T02:49:07.105Z,22.5127
2023-05-15T02:50:08.835Z,22.5142
2023-05-15T02:51:10.562Z,22.5085
2023-05-15T02:52:12.366Z,22.5077
2023-05-15T02:53:14.027Z,22.5031
2023-05-15T02:54:15.768Z,22.5173
2023-05-15T02:55:17.472Z,22.5269
2023-05-15T02:56:19.201Z,22.5454
2023-05-15T02:57:20.939Z,22.5558
2023-05-15T02:58:22.727Z,22.5427
2023-05-15T02:59:24.413Z,22.5362
2023-05-15T03:00:26.150Z,22.5346
2023-05-15T03:01:27.874Z,22.5473
2023-05-15T03:02:29.606Z,22.5492
2023-05-15T03:03:31.338Z,22.5431
2023-05-15T03:04:33.200Z,22.5508
2023-05-15T03:05:34.803Z,22.5519
2023-05-15T03:06:36.512Z,22.5523
2023-05-15T03:07:38.238Z,22.5454
2023-05-15T03:08:39.968Z,22.5400
2023-05-15T03:09:41.781Z,22.5408
2023-05-15T03:10:43.454Z,22.5415
2023-05-15T03:11:45.166Z,22.5450
2023-05-15T03:12:46.888Z,22.5496
2023-05-15T03:13:48.630Z,22.5392
2023-05-15T03:14:50.364Z,22.5465
2023-05-15T03:15:52.186Z,22.5346
2023-05-15T03:16:53.857Z,22.5442
2023-05-15T03:17:55.574Z,22.5427
2023-05-15T03:18:57.294Z,22.5427
2023-05-15T03:19:59.019Z,22.5488
2023-05-15T03:21:00.751Z,22.5377
2023-05-15T03:22:02.590Z,22.5388
2023-05-15T03:23:04.195Z,22.5381
2023-05-15T03:24:05.915Z,22.5573
2023-05-15T03:25:07.664Z,22.5508
2023-05-15T03:26:09.417Z,22.5400
2023-05-15T03:27:11.125Z,22.5450
2023-05-15T03:28:12.917Z,22.5515
2023-05-15T03:29:14.559Z,22.5608
2023-05-15T03:30:16.289Z,22.5623
2023-05-15T03:31:18.083Z,22.5546
2023-05-15T03:32:19.766Z,22.5573
2023-05-15T03:33:21.493Z,22.5496
2023-05-15T03:34:23.280Z,22.5519
2023-05-15T03:35:25.114Z,22.5565
2023-05-15T03:36:26.653Z,22.5550
2023-05-15T03:37:28.410Z,22.5565
2023-05-15T03:38:30.188Z,22.5585
2023-05-15T03:39:31.841Z,22.5458
2023-05-15T03:40:33.649Z,22.5465
2023-05-15T03:41:35.306Z,22.5423
2023-05-15T03:42:37.043Z,22.5365
2023-05-15T03:43:38.780Z,22.5277
2023-05-15T03:44:40.510Z,22.5358
2023-05-15T03:45:42.210Z,22.5442
2023-05-15T03:46:44.095Z,22.5335
2023-05-15T03:47:45.731Z,22.5335
2023-05-15T03:48:47.427Z,22.5312
2023-05-15T03:49:49.136Z,22.5385
2023-05-15T03:50:50.889Z,22.5327
2023-05-15T03:51:52.630Z,22.5162
2023-05-15T03:52:54.428Z,22.5212
2023-05-15T03:53:56.082Z,22.5165
2023-05-15T03:54:57.789Z,22.5292
2023-05-15T03:55:59.514Z,22.5212
2023-05-15T03:57:01.282Z,22.5246
2023-05-15T03:58:02.998Z,22.5312
2023-05-15T03:59:04.806Z,22.5308
2023-05-15T04:00:06.443Z,22.5292
2023-05-15T04:01:08.182Z,22.5208
2023-05-15T04:02:09.936Z,22.5338
2023-05-15T04:03:11.794Z,22.5419
2023-05-15T04:04:13.390Z,22.5354
2023-05-15T04:06:30.189Z,22.5150
2023-05-15T04:07:31.837Z,22.5223
2023-05-15T04:08:33.553Z,22.5231
2023-05-15T04:09:35.385Z,22.5081
2023-05-15T04:10:37.038Z,22.4996
2023-05-15T04:11:38.777Z,22.5015
2023-05-15T04:12:40.509Z,22.5062
2023-05-15T04:13:42.212Z,22.4800
2023-05-15T04:14:44.126Z,22.4819
2023-05-15T04:15:45.714Z,22.4862
2023-05-15T04:16:47.484Z,22.5031
2023-05-15T04:17:49.171Z,22.5031
2023-05-15T04:18:50.918Z,22.5054
2023-05-15T04:19:52.594Z,22.5077
2023-05-15T04:20:54.432Z,22.5150
2023-05-15T04:21:56.082Z,22.5100
2023-05-15T04:22:57.817Z,22.5254
2023-05-15T04:23:59.521Z,22.5112
2023-05-15T04:25:01.253Z,22.5162
2023-05-15T04:26:02.980Z,22.5192
2023-05-15T04:27:04.910Z,22.5177
2023-05-15T04:28:06.470Z,22.5135
2023-05-15T04:29:08.200Z,22.5150
2023-05-15T04:30:09.941Z,22.5235
2023-05-15T04:31:11.641Z,22.5208
2023-05-15T04:32:13.445Z,22.5242
2023-05-15T04:33:15.248Z,22.5219
2023-05-15T04:34:16.861Z,22.5127
2023-05-15T04:35:18.586Z,22.5231
2023-05-15T04:36:20.302Z,22.5338
2023-05-15T04:37:22.054Z,22.5181
2023-05-15T04:38:23.789Z,22.5123
2023-05-15T04:39:25.604Z,22.5019
2023-05-15T04:40:27.239Z,22.5015
2023-05-15T04:41:28.958Z,22.5023
2023-05-15T04:42:30.694Z,22.5069
2023-05-15T04:43:32.461Z,22.5027
2023-05-15T04:44:34.190Z,22.5196
2023-05-15T04:45:35.960Z,22.5104
2023-05-15T04:46:37.739Z,22.5104
2023-05-15T04:47:39.422Z,22.5227
2023-05-15T04:48:41.104Z,22.5077
2023-05-15T04:49:42.834Z,22.5046
2023-05-15T04:50:44.654Z,22.5077
2023-05-15T04:51:46.360Z,22.5158
2023-05-15T04:52:48.011Z,22.5131
2023-05-15T04:53:49.741Z,22.5085
2023-05-15T04:54:51.496Z,22.5046
2023-05-15T04:55:53.218Z,22.4942
2023-05-15T04:56:54.986Z,22.4912
2023-05-15T04:57:56.663Z,22.4908
2023-05-15T04:58:58.395Z,22.5081
2023-05-15T05:00:00.161Z,22.4988
2023-05-15T05:01:03.894Z,22.5065
2023-05-15T05:02:03.709Z,22.5035
2023-05-15T05:03:05.494Z,22.4981
2023-05-15T05:04:07.139Z,22.5169
2023-05-15T05:05:08.800Z,22.5035
2023-05-15T05:06:10.532Z,22.4900
2023-05-15T05:07:12.242Z,22.5081
2023-05-15T05:08:14.046Z,22.5185
2023-05-15T05:09:15.702Z,22.5246
2023-05-15T05:10:17.423Z,22.5100
2023-05-15T05:11:19.221Z,22.5231
2023-05-15T05:12:20.908Z,22.5215
2023-05-15T05:13:22.629Z,22.5269
2023-05-15T05:14:24.453Z,22.5238
2023-05-15T05:15:26.417Z,22.5304
2023-05-15T05:16:27.920Z,22.5312
2023-05-15T05:17:29.643Z,22.5273
2023-05-15T05:18:31.368Z,22.5327
2023-05-15T05:19:33.025Z,22.5346
2023-05-15T05:20:34.843Z,22.5331
2023-05-15T05:21:36.497Z,22.5319
2023-05-15T05:22:38.239Z,22.5354
2023-05-15T05:23:39.957Z,22.5446
2023-05-15T05:24:41.669Z,22.5465
2023-05-15T05:25:43.495Z,22.5465
2023-05-15T05:26:45.122Z,22.5485
2023-05-15T05:27:46.883Z,22.5488
2023-05-15T05:28:48.603Z,22.5554
2023-05-15T05:29:50.323Z,22.5596
2023-05-15T05:30:52.045Z,22.5508
2023-05-15T05:31:53.924Z,22.5404
2023-05-15T05:32:55.568Z,22.5462
2023-05-15T05:33:57.257Z,22.5581
2023-05-15T05:34:58.979Z,22.5623
2023-05-15T05:36:00.718Z,22.5715
2023-05-15T05:37:02.538Z,22.5881
2023-05-15T05:38:04.173Z,22.5915
2023-05-15T05:39:05.901Z,22.5985
2023-05-15T05:40:07.628Z,22.5958
2023-05-15T05:41:09.363Z,22.5846
2023-05-15T05:42:11.076Z,22.5838
2023-05-15T05:43:12.914Z,22.5908
2023-05-15T05:44:14.543Z,22.5912
2023-05-15T05:45:16.294Z,22.5927
2023-05-15T05:46:18.069Z,22.6000
2023-05-15T05:47:19.748Z,22.5938
2023-05-15T05:51:21.760Z,22.5725
2023-05-15T05:52:23.401Z,22.5727
2023-05-15T05:53:25.157Z,22.5685
2023-05-15T05:54:26.942Z,22.5665
2023-05-15T05:55:28.602Z,22.5538
2023-05-15T05:56:30.333Z,22.5538
2023-05-15T05:57:32.086Z,22.5662
2023-05-15T05:58:33.819Z,22.5669
2023-05-15T05:59:35.622Z,22.5738
2023-05-15T06:00:37.262Z,22.5746
2023-05-15T06:01:38.992Z,22.5877
2023-05-15T06:02:40.887Z,22.5915
2023-05-15T06:03:42.567Z,22.5981
2023-05-15T06:04:44.298Z,22.6042
2023-05-15T06:05:45.991Z,22.6077
2023-05-15T06:06:47.672Z,22.6096
2023-05-15T06:07:49.371Z,22.6088
2023-05-15T06:08:51.127Z,22.6092
2023-05-15T06:09:52.839Z,22.6081
2023-05-15T06:10:54.583Z,22.6027
2023-05-15T06:11:56.376Z,22.6046
2023-05-15T06:12:58.036Z,22.6073
2023-05-15T06:13:59.759Z,22.6142
2023-05-15T06:15:01.506Z,22.6119
2023-05-15T06:16:03.237Z,22.6127
2023-05-15T06:17:05.120Z,22.6169
2023-05-15T06:18:06.720Z,22.6150
2023-05-15T06:19:08.447Z,22.6196
2023-05-15T06:20:10.151Z,22.6173
2023-05-15T06:21:11.994Z,22.6215
2023-05-15T06:22:13.616Z,22.6177
2023-05-15T06:23:15.392Z,22.6235
2023-05-15T06:24:17.087Z,22.6273
2023-05-15T06:25:18.799Z,22.6269
2023-05-15T06:26:20.528Z,22.6281
2023-05-15T06:27:22.237Z,22.6281
2023-05-15T06:28:24.040Z,22.6277
2023-05-15T06:29:25.726Z,22.6292
2023-05-15T06:30:27.549Z,22.6315
2023-05-15T06:31:29.246Z,22.6292
2023-05-15T06:32:32.455Z,22.6292
2023-05-15T06:33:32.662Z,22.6319
2023-05-15T06:34:34.480Z,22.6338
2023-05-15T06:35:36.098Z,22.6308
2023-05-15T06:36:37.817Z,22.6315
2023-05-15T06:37:39.577Z,22.6285
2023-05-15T06:38:41.292Z,22.6312
2023-05-15T06:39:43.004Z,22.6319
2023-05-15T06:40:44.819Z,22.6338
2023-05-15T06:41:46.492Z,22.6319
2023-05-15T06:42:48.213Z,22.6385
2023-05-15T06:43:50.002Z,22.6365
2023-05-15T06:44:51.673Z,22.6365
2023-05-15T06:45:53.421Z,22.6373
2023-05-15T06:46:55.307Z,22.6404
2023-05-15T06:47:58.506Z,22.6408
2023-05-15T06:51:56.565Z,22.6271
2023-05-15T06:52:58.198Z,22.6242
2023-05-15T06:53:59.939Z,22.6173
2023-05-15T06:55:01.771Z,22.6177
2023-05-15T06:56:03.524Z,22.6142
2023-05-15T06:57:05.135Z,22.6192
2023-05-15T06:58:06.884Z,22.6177
2023-05-15T06:59:08.632Z,22.6200
2023-05-15T07:00:10.440Z,22.6223
2023-05-15T07:01:12.102Z,22.6242
2023-05-15T07:02:13.908Z,22.6192
2023-05-15T07:03:15.546Z,22.6238
2023-05-15T07:04:17.312Z,22.6265
2023-05-15T07:05:19.086Z,22.6315
2023-05-15T07:06:20.769Z,22.6288
2023-05-15T07:07:22.495Z,22.6269
2023-05-15T07:08:24.222Z,22.6250
2023-05-15T07:09:25.954Z,22.6254
2023-05-15T07:10:27.967Z,22.6312
2023-05-15T07:11:29.441Z,22.6323
2023-05-15T07:12:31.165Z,22.6335
2023-05-15T07:13:32.880Z,22.6319
2023-05-15T07:14:34.620Z,22.6354
2023-05-15T07:15:36.379Z,22.6362
2023-05-15T07:16:38.094Z,22.6381
2023-05-15T07:17:39.892Z,22.6392
2023-05-15T07:18:41.605Z,22.6392
2023-05-15T07:19:43.286Z,22.6412
2023-05-15T07:20:44.996Z,22.6412
2023-05-15T07:21:46.768Z,22.6419
2023-05-15T07:22:56.417Z,22.6427
2023-05-15T07:23:50.201Z,22.6419
2023-05-15T07:24:51.935Z,22.6446
2023-05-15T07:25:53.680Z,22.6454
2023-05-15T07:26:58.540Z,22.6469
2023-05-15T07:27:57.158Z,22.6477
2023-05-15T07:28:58.857Z,22.6492
2023-05-15T07:30:00.618Z,22.6508
2023-05-15T07:31:03.124Z,22.6504
2023-05-15T07:32:04.111Z,22.6496
2023-05-15T07:33:05.816Z,22.6454
2023-05-15T07:34:07.542Z,22.6473
2023-05-15T07:35:09.244Z,22.6462
2023-05-15T07:36:10.987Z,22.6477
2023-05-15T07:37:13.599Z,22.6485
2023-05-15T07:38:14.551Z,22.6442
2023-05-15T07:39:16.209Z,22.6423
2023-05-15T07:40:17.937Z,22.6469
2023-05-15T07:41:19.662Z,22.6438
2023-05-15T07:42:21.389Z,22.6392
2023-05-15T07:43:23.126Z,22.6369
2023-05-15T07:44:24.832Z,22.6350
2023-05-15T07:45:27.117Z,22.6385
2023-05-15T07:46:28.343Z,22.6350
2023-05-15T07:47:30.075Z,22.6315
2023-05-15T07:48:31.778Z,22.6315
2023-05-15T07:49:33.509Z,22.6319
2023-05-15T07:50:35.221Z,22.6296
2023-05-15T07:51:36.963Z,22.6312
2023-05-15T07:52:38.683Z,22.6315
2023-05-15T07:53:40.442Z,22.6250
2023-05-15T07:54:42.169Z,22.6273
2023-05-15T07:55:43.897Z,22.6258
2023-05-15T07:56:45.608Z,22.6258
2023-05-15T07:57:53.534Z,22.6200
2023-05-15T08:00:04.259Z,22.6167
2023-05-15T08:01:05.946Z,22.6088
2023-05-15T08:02:07.693Z,22.6065
2023-05-15T08:03:09.553Z,22.6123
2023-05-15T08:04:11.112Z,22.5962
2023-05-15T08:05:12.820Z,22.5896
2023-05-15T08:06:14.527Z,22.6015
2023-05-15T08:07:16.290Z,22.5946
2023-05-15T08:08:18.102Z,22.5988
2023-05-15T08:09:19.752Z,22.5954
2023-05-15T08:10:21.465Z,22.5873
2023-05-15T08:11:23.202Z,22.5915
2023-05-15T08:12:25.519Z,22.5900
2023-05-15T08:13:26.688Z,22.5885
2023-05-15T08:14:28.519Z,22.5854
2023-05-15T08:15:30.144Z,22.5892
2023-05-15T08:16:31.902Z,22.5835
2023-05-15T08:17:33.627Z,22.5796
2023-05-15T08:18:35.332Z,22.5762
2023-05-15T08:19:37.048Z,22.5808
2023-05-15T08:20:38.857Z,22.5750
2023-05-15T08:21:40.533Z,22.5788
2023-05-15T08:22:42.245Z,22.5781
2023-05-15T08:23:44.004Z,22.5769
2023-05-15T08:24:45.728Z,22.5631
2023-05-15T08:25:47.540Z,22.5604
2023-05-15T08:26:49.186Z,22.5435
2023-05-15T08:27:50.903Z,22.5354
2023-05-15T08:28:52.639Z,22.5427
2023-05-15T08:29:54.407Z,22.5492
2023-05-15T08:30:56.204Z,22.5508
2023-05-15T08:31:57.939Z,22.5465
2023-05-15T08:32:59.618Z,22.5362
2023-05-15T08:34:01.332Z,22.5331
2023-05-15T08:35:03.032Z,22.5404
2023-05-15T08:36:04.842Z,22.5423
2023-05-15T08:37:06.508Z,22.5419
2023-05-15T08:38:08.323Z,22.5492
2023-05-15T08:39:09.983Z,22.5450
2023-05-15T08:40:11.721Z,22.5235
2023-05-15T08:41:13.441Z,22.5400
2023-05-15T08:42:15.193Z,22.5350
2023-05-15T08:43:16.980Z,22.5273
2023-05-15T08:44:18.659Z,22.5327
2023-05-15T08:45:20.381Z,22.5338
2023-05-15T08:46:22.152Z,22.5238
2023-05-15T08:47:23.826Z,22.5292
2023-05-15T08:48:25.700Z,22.5246
2023-05-15T08:49:27.310Z,22.5254
2023-05-15T08:50:29.041Z,22.5238
2023-05-15T08:51:30.767Z,22.5273
2023-05-15T08:52:32.497Z,22.5250
2023-05-15T08:53:34.259Z,22.5204
2023-05-15T08:54:36.006Z,22.5231
2023-05-15T08:55:37.717Z,22.5265
2023-05-15T08:56:39.447Z,22.5315
2023-05-15T08:57:41.174Z,22.5400
2023-05-15T08:58:42.879Z,22.5454
2023-05-15T08:59:44.640Z,22.5523
2023-05-15T09:00:46.368Z,22.5388
2023-05-15T09:01:48.142Z,22.5377
2023-05-15T09:02:49.933Z,22.5200
2023-05-15T09:03:51.589Z,22.5262
2023-05-15T09:04:53.263Z,22.5096
2023-05-15T09:05:55.034Z,22.5077
2023-05-15T09:06:56.740Z,22.5200
2023-05-15T09:07:58.462Z,22.5212
2023-05-15T09:09:00.269Z,22.5146
2023-05-15T09:10:01.922Z,22.5173
2023-05-15T09:11:03.646Z,22.5169
2023-05-15T09:12:05.361Z,22.5208
2023-05-15T09:13:07.118Z,22.5231
2023-05-15T09:14:08.842Z,22.5131
2023-05-15T09:15:10.557Z,22.5273
2023-05-15T09:16:12.291Z,22.5296
2023-05-15T09:17:14.038Z,22.5212
2023-05-15T09:18:15.744Z,22.5173
2023-05-15T09:19:17.519Z,22.5115
2023-05-15T09:20:19.300Z,22.5054
2023-05-15T09:21:20.952Z,22.5012
2023-05-15T09:22:22.685Z,22.5031
2023-05-15T09:23:24.408Z,22.4912
2023-05-15T09:24:26.110Z,22.4846
2023-05-15T09:25:27.835Z,22.4896
2023-05-15T09:26:29.596Z,22.4881
2023-05-15T09:27:31.302Z,22.4927
2023-05-15T09:28:33.051Z,22.4931
2023-05-15T09:29:34.785Z,22.4965
2023-05-15T09:30:36.529Z,22.4927
2023-05-15T09:31:38.233Z,22.5008
2023-05-15T09:32:39.992Z,22.4931
2023-05-15T09:33:41.713Z,22.4977
2023-05-15T09:34:43.447Z,22.4969
2023-05-15T09:35:45.171Z,22.5054
2023-05-15T09:36:46.899Z,22.4985
2023-05-15T09:37:48.609Z,22.4842
2023-05-15T09:38:50.361Z,22.4823
2023-05-15T09:39:52.081Z,22.4796
2023-05-15T09:40:53.817Z,22.4888
2023-05-15T09:41:55.529Z,22.4950
2023-05-15T09:42:57.283Z,22.4808
2023-05-15T09:43:58.981Z,22.4785
2023-05-15T09:45:00.736Z,22.4754
2023-05-15T09:46:02.518Z,22.4742
2023-05-15T09:47:04.304Z,22.4758
2023-05-15T09:48:05.989Z,22.4727
2023-05-15T09:49:07.639Z,22.4746
2023-05-15T09:50:09.374Z,22.4708
2023-05-15T09:51:11.115Z,22.4700
2023-05-15T09:52:12.840Z,22.4669
2023-05-15T09:53:14.765Z,22.4585
2023-05-15T09:54:16.288Z,22.4569
2023-05-15T09:55:18.013Z,22.4469
2023-05-15T09:56:19.762Z,22.4404
2023-05-15T09:57:21.476Z,22.4485
2023-05-15T09:58:23.203Z,22.4554
2023-05-15T09:59:24.951Z,22.4531
2023-05-15T10:00:26.866Z,22.4515
2023-05-15T10:01:28.403Z,22.4435
2023-05-15T10:02:30.157Z,22.4312
2023-05-15T10:03:31.869Z,22.4296
2023-05-15T10:04:33.569Z,22.4346
2023-05-15T10:05:43.000Z,22.4377
2023-05-15T10:06:37.035Z,22.4327
2023-05-15T10:07:38.750Z,22.4304
2023-05-15T10:08:40.470Z,22.4250
2023-05-15T10:09:42.219Z,22.4227
2023-05-15T10:10:43.987Z,22.4196
2023-05-15T10:11:45.686Z,22.4096
2023-05-15T10:12:48.368Z,22.4250
2023-05-15T10:13:49.111Z,22.4292
2023-05-15T10:14:50.840Z,22.4254
2023-05-15T10:15:52.612Z,22.4258
2023-05-15T10:16:54.425Z,22.4162
2023-05-15T10:17:56.118Z,22.4162
2023-05-15T10:18:57.886Z,22.4215
2023-05-15T10:19:59.500Z,22.4146
2023-05-15T10:21:01.230Z,22.4188
2023-05-15T10:22:02.946Z,22.4219
2023-05-15T10:23:04.679Z,22.4246
2023-05-15T10:24:06.433Z,22.4273
2023-05-15T10:25:08.159Z,22.4258
2023-05-15T10:26:09.855Z,22.4227
2023-05-15T10:27:11.602Z,22.4135
2023-05-15T10:28:13.311Z,22.4054
2023-05-15T10:29:15.076Z,22.4073
2023-05-15T10:30:16.795Z,22.4038
2023-05-15T10:31:18.523Z,22.4035
2023-05-15T10:32:20.230Z,22.4004
2023-05-15T10:33:21.965Z,22.3969
2023-05-15T10:34:23.711Z,22.3888
2023-05-15T10:35:25.445Z,22.3962
2023-05-15T10:36:27.172Z,22.3850
2023-05-15T10:37:28.895Z,22.3869
2023-05-15T10:38:30.612Z,22.3877
2023-05-15T10:39:32.361Z,22.3812
2023-05-15T10:40:34.092Z,22.3738
2023-05-15T10:41:35.823Z,22.3742
2023-05-15T10:42:37.522Z,22.3781
2023-05-15T10:43:39.259Z,22.3723
2023-05-15T10:44:40.983Z,22.3700
2023-05-15T10:45:42.753Z,22.3658
2023-05-15T10:46:44.517Z,22.3635
2023-05-15T10:47:46.233Z,22.3685
2023-05-15T10:48:47.902Z,22.3777
2023-05-15T10:49:49.621Z,22.3627
2023-05-15T10:50:51.380Z,22.3635
2023-05-15T10:51:53.080Z,22.3535
2023-05-15T10:52:54.843Z,22.3419
2023-05-15T10:53:56.575Z,22.3385
2023-05-15T10:54:58.327Z,22.3465
2023-05-15T10:56:00.034Z,22.3462
2023-05-15T10:57:01.816Z,22.3554
2023-05-15T10:58:03.482Z,22.3431
2023-05-15T10:59:05.198Z,22.3435
2023-05-15T11:00:06.938Z,22.3392
2023-05-15T11:01:08.670Z,22.3312
2023-05-15T11:02:10.394Z,22.3362
2023-05-15T11:03:12.153Z,22.3377
2023-05-15T11:04:13.922Z,22.3338
2023-05-15T11:05:15.587Z,22.3300
2023-05-15T11:06:17.308Z,22.3281
2023-05-15T11:07:19.028Z,22.3396
2023-05-15T11:08:20.857Z,22.3312
2023-05-15T11:09:22.561Z,22.3238
2023-05-15T11:10:24.405Z,22.3250
2023-05-15T11:11:25.954Z,22.3235
2023-05-15T11:12:27.713Z,22.3200
2023-05-15T11:13:29.409Z,22.3196
2023-05-15T11:14:31.116Z,22.3158
2023-05-15T11:15:32.845Z,22.3177
2023-05-15T11:16:34.611Z,22.3088
2023-05-15T11:17:36.359Z,22.3077
2023-05-15T11:18:38.059Z,22.3035
2023-05-15T11:19:39.760Z,22.3054
2023-05-15T11:20:41.500Z,22.3038
2023-05-15T11:21:43.208Z,22.3054
2023-05-15T11:22:44.955Z,22.3012
2023-05-15T11:23:46.682Z,22.2950
2023-05-15T11:24:48.426Z,22.2873
2023-05-15T11:25:50.140Z,22.2881
2023-05-15T11:26:51.855Z,22.2865
2023-05-15T11:27:53.592Z,22.2938
2023-05-15T11:28:55.318Z,22.3015
2023-05-15T11:29:57.049Z,22.3008
2023-05-15T11:30:58.793Z,22.2915
2023-05-15T11:32:00.500Z,22.2919
2023-05-15T11:33:02.266Z,22.2954
2023-05-15T11:34:03.977Z,22.2958
2023-05-15T11:35:05.689Z,22.2931
2023-05-15T11:36:07.425Z,22.3004
2023-05-15T11:37:09.187Z,22.2896
2023-05-15T11:38:10.932Z,22.2931
2023-05-15T11:39:12.604Z,22.3065
2023-05-15T11:40:14.341Z,22.3069
2023-05-15T11:41:16.055Z,22.2981
2023-05-15T11:42:17.815Z,22.2904
2023-05-15T11:43:19.537Z,22.2912
2023-05-15T11:44:21.263Z,22.2927
2023-05-15T11:45:23.017Z,22.2950
2023-05-15T11:46:24.737Z,22.2927
2023-05-15T11:47:26.452Z,22.2912
2023-05-15T11:48:28.191Z,22.2942
2023-05-15T11:49:29.911Z,22.2858
2023-05-15T11:50:31.626Z,22.3004
2023-05-15T11:51:33.358Z,22.2962
2023-05-15T11:52:35.139Z,22.2935
2023-05-15T11:53:36.837Z,22.2988
2023-05-15T11:54:38.557Z,22.2862
2023-05-15T11:55:40.267Z,22.2931
2023-05-15T11:56:42.019Z,22.2912
2023-05-15T11:57:43.749Z,22.2877
2023-05-15T11:58:45.463Z,22.2927
2023-05-15T11:59:47.256Z,22.2962
2023-05-15T12:00:48.918Z,22.3019
2023-05-15T12:01:50.768Z,22.2950
2023-05-15T12:02:52.568Z,22.2973
2023-05-15T12:03:54.612Z,22.3008
2023-05-15T12:04:55.965Z,22.2873
2023-05-15T12:06:00.087Z,22.2804
2023-05-15T12:07:00.480Z,22.2858
2023-05-15T12:08:01.126Z,22.2777
2023-05-15T12:09:02.865Z,22.2819
2023-05-15T12:10:04.592Z,22.2819
2023-05-15T12:11:06.321Z,22.2731
2023-05-15T12:12:08.077Z,22.2662
2023-05-15T12:13:09.783Z,22.2692
2023-05-15T12:14:11.538Z,22.2712
2023-05-15T12:15:13.237Z,22.2600
2023-05-15T12:16:15.003Z,22.2577
2023-05-15T12:17:16.691Z,22.2504
2023-05-15T12:18:18.454Z,22.2562
2023-05-15T12:19:20.239Z,22.2550
2023-05-15T12:20:21.916Z,22.2604
2023-05-15T12:21:23.659Z,22.2585
2023-05-15T12:22:25.354Z,22.2481
2023-05-15T12:23:27.091Z,22.2392
2023-05-15T12:24:28.837Z,22.2435
2023-05-15T12:25:30.574Z,22.2508
2023-05-15T12:26:32.293Z,22.2508
2023-05-15T12:27:34.031Z,22.2404
2023-05-15T12:28:35.770Z,22.2388
2023-05-15T12:29:37.481Z,22.2454
2023-05-15T12:30:39.240Z,22.2308
2023-05-15T12:31:40.958Z,22.2446
2023-05-15T12:32:42.707Z,22.2488
2023-05-15T12:33:44.424Z,22.2419
2023-05-15T12:34:46.144Z,22.2277
2023-05-15T12:35:47.867Z,22.2285
2023-05-15T12:36:49.576Z,22.2231